sensor_id;sensor_type;location;lat;lon;timestamp;pressure;altitude;pressure_sealevel;temperature;humidity
55610;BME280;41486;52.502;13.486;2022-10-10T00:01:39;101633.59;;;7.63;100.00
55610;BME280;41486;52.502;13.486;2022-10-10T00:04:09;101633.63;;;7.44;100.00
55610;BME280;41486;52.502;13.486;2022-10-10T00:06:37;101620.56;;;7.42;100.00
55610;BME280;41486;52.502;13.486;2022-10-10T00:09:06;101623.56;;;7.34;100.00
55610;BME280;41486;52.502;13.486;2022-10-10T00:11:35;101626.03;;;7.56;100.00
55610;BME280;41486;52.502;13.486;2022-10-10T00:14:03;101628.00;;;7.51;100.00
55610;BME280;41486;52.502;13.486;2022-10-10T00:16:31;101622.50;;;7.38;100.00
55610;BME280;41486;52.502;13.486;2022-10-10T00:18:58;101624.00;;;7.25;100.00
55610;BME280;41486;52.502;13.486;2022-10-10T00:21:29;101632.34;;;7.14;100.00
55610;BME280;41486;52.502;13.486;2022-10-10T00:23:56;101620.69;;;7.21;100.00
55610;BME280;41486;52.502;13.486;2022-10-10T00:26:36;101619.84;;;7.21;100.00
55610;BME280;41486;52.502;13.486;2022-10-10T00:29:10;101612.25;;;7.15;100.00
55610;BME280;41486;52.502;13.486;2022-10-10T00:31:40;101614.16;;;7.11;100.00
55610;BME280;41486;52.502;13.486;2022-10-10T00:34:16;101611.00;;;7.23;100.00
55610;BME280;41486;52.502;13.486;2022-10-10T00:36:47;101610.78;;;7.28;100.00
55610;BME280;41486;52.502;13.486;2022-10-10T00:39:16;101605.06;;;7.20;100.00
55610;BME280;41486;52.502;13.486;2022-10-10T00:41:50;101601.78;;;7.15;100.00
55610;BME280;41486;52.502;13.486;2022-10-10T00:44:18;101594.78;;;7.15;100.00
55610;BME280;41486;52.502;13.486;2022-10-10T00:46:46;101595.34;;;7.03;100.00
55610;BME280;41486;52.502;13.486;2022-10-10T00:49:17;101587.69;;;7.17;100.00
55610;BME280;41486;52.502;13.486;2022-10-10T00:51:48;101584.75;;;7.06;100.00
55610;BME280;41486;52.502;13.486;2022-10-10T00:54:21;101578.81;;;7.02;100.00
55610;BME280;41486;52.502;13.486;2022-10-10T00:56:53;101578.09;;;6.99;100.00
55610;BME280;41486;52.502;13.486;2022-10-10T00:59:22;101575.97;;;7.07;100.00
55610;BME280;41486;52.502;13.486;2022-10-10T01:01:51;101581.50;;;7.01;100.00
55610;BME280;41486;52.502;13.486;2022-10-10T01:04:37;101575.81;;;6.91;100.00
55610;BME280;41486;52.502;13.486;2022-10-10T01:07:14;101578.41;;;6.92;100.00
55610;BME280;41486;52.502;13.486;2022-10-10T01:09:43;101580.50;;;6.84;100.00
55610;BME280;41486;52.502;13.486;2022-10-10T01:12:17;101577.59;;;6.90;100.00
55610;BME280;41486;52.502;13.486;2022-10-10T01:14:53;101576.63;;;6.93;100.00
55610;BME280;41486;52.502;13.486;2022-10-10T01:17:29;101561.13;;;6.88;100.00
55610;BME280;41486;52.502;13.486;2022-10-10T01:20:20;101562.31;;;6.81;100.00
55610;BME280;41486;52.502;13.486;2022-10-10T01:23:26;101563.13;;;6.83;100.00
55610;BME280;41486;52.502;13.486;2022-10-10T01:26:24;101560.31;;;6.67;100.00
55610;BME280;41486;52.502;13.486;2022-10-10T01:29:00;101554.25;;;6.67;100.00
55610;BME280;41486;52.502;13.486;2022-10-10T01:31:33;101551.94;;;6.60;100.00
55610;BME280;41486;52.502;13.486;2022-10-10T01:34:16;101553.19;;;6.71;100.00
55610;BME280;41486;52.502;13.486;2022-10-10T01:36:50;101552.94;;;6.77;100.00
55610;BME280;41486;52.502;13.486;2022-10-10T01:39:26;101547.34;;;6.66;100.00
55610;BME280;41486;52.502;13.486;2022-10-10T01:41:58;101539.34;;;6.69;100.00
55610;BME280;41486;52.502;13.486;2022-10-10T01:44:29;101544.59;;;6.69;100.00
55610;BME280;41486;52.502;13.486;2022-10-10T01:46:59;101537.94;;;6.81;100.00
55610;BME280;41486;52.502;13.486;2022-10-10T01:49:31;101535.47;;;6.77;100.00
55610;BME280;41486;52.502;13.486;2022-10-10T01:52:08;101528.31;;;6.81;100.00
55610;BME280;41486;52.502;13.486;2022-10-10T01:54:45;101534.84;;;6.72;100.00
55610;BME280;41486;52.502;13.486;2022-10-10T01:57:20;101525.50;;;6.67;100.00
55610;BME280;41486;52.502;13.486;2022-10-10T01:59:59;101524.50;;;6.69;100.00
55610;BME280;41486;52.502;13.486;2022-10-10T02:02:39;101524.91;;;6.79;100.00
55610;BME280;41486;52.502;13.486;2022-10-10T02:05:17;101521.25;;;6.83;100.00
55610;BME280;41486;52.502;13.486;2022-10-10T02:07:53;101519.41;;;6.66;100.00
55610;BME280;41486;52.502;13.486;2022-10-10T02:10:26;101512.03;;;6.55;100.00
55610;BME280;41486;52.502;13.486;2022-10-10T02:12:58;101503.44;;;6.72;100.00
55610;BME280;41486;52.502;13.486;2022-10-10T02:15:33;101508.31;;;6.61;100.00
55610;BME280;41486;52.502;13.486;2022-10-10T02:18:05;101512.66;;;6.41;100.00
55610;BME280;41486;52.502;13.486;2022-10-10T02:20:35;101502.50;;;6.54;100.00
55610;BME280;41486;52.502;13.486;2022-10-10T02:23:04;101505.88;;;6.37;100.00
55610;BME280;41486;52.502;13.486;2022-10-10T02:25:38;101492.75;;;6.39;100.00
55610;BME280;41486;52.502;13.486;2022-10-10T02:28:16;101500.34;;;6.24;100.00
55610;BME280;41486;52.502;13.486;2022-10-10T02:30:55;101486.00;;;6.33;100.00
55610;BME280;41486;52.502;13.486;2022-10-10T02:33:32;101484.13;;;6.37;100.00
55610;BME280;41486;52.502;13.486;2022-10-10T02:36:05;101487.09;;;6.29;100.00
55610;BME280;41486;52.502;13.486;2022-10-10T02:38:35;101489.69;;;6.29;100.00
55610;BME280;41486;52.502;13.486;2022-10-10T02:41:04;101482.25;;;6.20;100.00
55610;BME280;41486;52.502;13.486;2022-10-10T02:43:35;101485.28;;;6.10;100.00
55610;BME280;41486;52.502;13.486;2022-10-10T02:46:06;101488.56;;;6.15;100.00
55610;BME280;41486;52.502;13.486;2022-10-10T02:48:38;101481.91;;;6.08;100.00
55610;BME280;41486;52.502;13.486;2022-10-10T02:51:09;101478.53;;;6.25;100.00
55610;BME280;41486;52.502;13.486;2022-10-10T02:53:41;101476.25;;;6.18;100.00
55610;BME280;41486;52.502;13.486;2022-10-10T02:56:11;101466.00;;;6.13;100.00
55610;BME280;41486;52.502;13.486;2022-10-10T02:58:38;101465.78;;;6.18;100.00
55610;BME280;41486;52.502;13.486;2022-10-10T03:01:08;101460.16;;;6.27;100.00
55610;BME280;41486;52.502;13.486;2022-10-10T03:03:36;101452.09;;;6.31;100.00
55610;BME280;41486;52.502;13.486;2022-10-10T03:06:04;101454.09;;;6.26;100.00
55610;BME280;41486;52.502;13.486;2022-10-10T03:08:32;101445.53;;;6.23;100.00
55610;BME280;41486;52.502;13.486;2022-10-10T03:11:01;101444.13;;;6.15;100.00
55610;BME280;41486;52.502;13.486;2022-10-10T03:13:29;101438.53;;;6.23;100.00
55610;BME280;41486;52.502;13.486;2022-10-10T03:15:59;101439.09;;;6.11;100.00
55610;BME280;41486;52.502;13.486;2022-10-10T03:18:31;101436.00;;;6.22;100.00
55610;BME280;41486;52.502;13.486;2022-10-10T03:20:58;101431.41;;;6.08;100.00
55610;BME280;41486;52.502;13.486;2022-10-10T03:23:26;101432.31;;;6.07;100.00
55610;BME280;41486;52.502;13.486;2022-10-10T03:25:54;101434.78;;;6.10;100.00
55610;BME280;41486;52.502;13.486;2022-10-10T03:28:22;101428.56;;;6.12;100.00
55610;BME280;41486;52.502;13.486;2022-10-10T03:30:50;101437.25;;;6.13;100.00
55610;BME280;41486;52.502;13.486;2022-10-10T03:33:17;101426.16;;;6.08;100.00
55610;BME280;41486;52.502;13.486;2022-10-10T03:35:49;101416.72;;;6.05;100.00
55610;BME280;41486;52.502;13.486;2022-10-10T03:38:17;101414.88;;;6.07;100.00
55610;BME280;41486;52.502;13.486;2022-10-10T03:40:45;101420.81;;;5.90;100.00
55610;BME280;41486;52.502;13.486;2022-10-10T03:43:27;101412.72;;;5.96;100.00
55610;BME280;41486;52.502;13.486;2022-10-10T03:45:55;101410.16;;;6.15;100.00
55610;BME280;41486;52.502;13.486;2022-10-10T03:48:27;101410.50;;;5.87;100.00
55610;BME280;41486;52.502;13.486;2022-10-10T03:50:56;101400.06;;;5.87;100.00
55610;BME280;41486;52.502;13.486;2022-10-10T03:53:24;101403.16;;;5.76;100.00
55610;BME280;41486;52.502;13.486;2022-10-10T03:55:52;101396.94;;;5.79;100.00
55610;BME280;41486;52.502;13.486;2022-10-10T03:58:20;101405.19;;;5.69;100.00
55610;BME280;41486;52.502;13.486;2022-10-10T04:00:54;101390.59;;;5.84;100.00
55610;BME280;41486;52.502;13.486;2022-10-10T04:03:22;101397.06;;;5.76;100.00
55610;BME280;41486;52.502;13.486;2022-10-10T04:05:50;101378.47;;;5.83;100.00
55610;BME280;41486;52.502;13.486;2022-10-10T04:08:22;101380.16;;;5.84;100.00
55610;BME280;41486;52.502;13.486;2022-10-10T04:10:54;101383.59;;;5.85;100.00
55610;BME280;41486;52.502;13.486;2022-10-10T04:13:23;101374.28;;;6.00;100.00
55610;BME280;41486;52.502;13.486;2022-10-10T04:15:52;101366.34;;;6.02;100.00
55610;BME280;41486;52.502;13.486;2022-10-10T04:18:21;101366.44;;;5.98;100.00
55610;BME280;41486;52.502;13.486;2022-10-10T04:20:54;101359.38;;;5.81;100.00
55610;BME280;41486;52.502;13.486;2022-10-10T04:23:33;101359.38;;;5.81;100.00
55610;BME280;41486;52.502;13.486;2022-10-10T04:26:01;101355.78;;;5.84;100.00
55610;BME280;41486;52.502;13.486;2022-10-10T04:28:29;101352.75;;;5.93;100.00
55610;BME280;41486;52.502;13.486;2022-10-10T04:30:57;101350.63;;;5.82;100.00
55610;BME280;41486;52.502;13.486;2022-10-10T04:33:25;101346.03;;;5.88;100.00
55610;BME280;41486;52.502;13.486;2022-10-10T04:35:53;101330.16;;;5.92;100.00
55610;BME280;41486;52.502;13.486;2022-10-10T04:38:21;101335.75;;;5.84;100.00
55610;BME280;41486;52.502;13.486;2022-10-10T04:40:53;101331.38;;;5.85;100.00
55610;BME280;41486;52.502;13.486;2022-10-10T04:43:23;101317.16;;;8.17;100.00
55610;BME280;41486;52.502;13.486;2022-10-10T04:45:50;101322.75;;;6.40;100.00
55610;BME280;41486;52.502;13.486;2022-10-10T04:48:18;101313.97;;;6.05;100.00
55610;BME280;41486;52.502;13.486;2022-10-10T04:50:50;101321.53;;;5.90;100.00
55610;BME280;41486;52.502;13.486;2022-10-10T04:53:18;101320.63;;;5.91;100.00
55610;BME280;41486;52.502;13.486;2022-10-10T04:55:46;101303.66;;;6.02;100.00
55610;BME280;41486;52.502;13.486;2022-10-10T04:58:15;101303.34;;;5.89;100.00
55610;BME280;41486;52.502;13.486;2022-10-10T05:00:43;101298.81;;;5.73;100.00
55610;BME280;41486;52.502;13.486;2022-10-10T05:03:11;101299.81;;;5.90;100.00
55610;BME280;41486;52.502;13.486;2022-10-10T05:05:39;101296.91;;;5.77;100.00
55610;BME280;41486;52.502;13.486;2022-10-10T05:08:07;101297.00;;;5.75;100.00
55610;BME280;41486;52.502;13.486;2022-10-10T05:10:35;101292.97;;;5.68;100.00
55610;BME280;41486;52.502;13.486;2022-10-10T05:13:04;101286.97;;;5.85;100.00
55610;BME280;41486;52.502;13.486;2022-10-10T05:15:34;101286.25;;;5.81;100.00
55610;BME280;41486;52.502;13.486;2022-10-10T05:18:02;101273.91;;;5.85;100.00
55610;BME280;41486;52.502;13.486;2022-10-10T05:20:31;101265.16;;;5.86;100.00
55610;BME280;41486;52.502;13.486;2022-10-10T05:22:59;101270.47;;;6.04;100.00
55610;BME280;41486;52.502;13.486;2022-10-10T05:25:27;101264.78;;;6.13;100.00
55610;BME280;41486;52.502;13.486;2022-10-10T05:27:55;101265.56;;;6.15;100.00
55610;BME280;41486;52.502;13.486;2022-10-10T05:30:23;101265.94;;;6.07;100.00
55610;BME280;41486;52.502;13.486;2022-10-10T05:32:52;101262.50;;;6.24;100.00
55610;BME280;41486;52.502;13.486;2022-10-10T05:35:20;101255.97;;;6.33;100.00
55610;BME280;41486;52.502;13.486;2022-10-10T05:37:47;101252.09;;;6.42;100.00
55610;BME280;41486;52.502;13.486;2022-10-10T05:40:15;101253.44;;;6.31;100.00
55610;BME280;41486;52.502;13.486;2022-10-10T05:42:43;101254.66;;;6.24;100.00
55610;BME280;41486;52.502;13.486;2022-10-10T05:45:11;101252.66;;;6.12;100.00
55610;BME280;41486;52.502;13.486;2022-10-10T05:47:39;101250.88;;;6.12;100.00
55610;BME280;41486;52.502;13.486;2022-10-10T05:50:19;101248.00;;;5.99;100.00
55610;BME280;41486;52.502;13.486;2022-10-10T05:52:51;101244.34;;;6.21;100.00
55610;BME280;41486;52.502;13.486;2022-10-10T05:55:20;101235.75;;;6.19;100.00
55610;BME280;41486;52.502;13.486;2022-10-10T05:57:48;101238.44;;;5.98;100.00
55610;BME280;41486;52.502;13.486;2022-10-10T06:00:16;101235.69;;;6.21;100.00
55610;BME280;41486;52.502;13.486;2022-10-10T06:02:43;101228.84;;;6.18;100.00
55610;BME280;41486;52.502;13.486;2022-10-10T06:05:13;101234.91;;;6.19;100.00
55610;BME280;41486;52.502;13.486;2022-10-10T06:07:41;101237.75;;;6.31;100.00
55610;BME280;41486;52.502;13.486;2022-10-10T06:10:29;101237.53;;;6.36;100.00
55610;BME280;41486;52.502;13.486;2022-10-10T06:12:57;101233.47;;;6.48;100.00
55610;BME280;41486;52.502;13.486;2022-10-10T06:15:24;101231.22;;;6.58;100.00
55610;BME280;41486;52.502;13.486;2022-10-10T06:17:52;101234.84;;;6.55;100.00
55610;BME280;41486;52.502;13.486;2022-10-10T06:20:21;101233.78;;;6.59;100.00
55610;BME280;41486;52.502;13.486;2022-10-10T06:22:49;101233.94;;;6.56;100.00
55610;BME280;41486;52.502;13.486;2022-10-10T06:25:17;101230.53;;;6.72;100.00
55610;BME280;41486;52.502;13.486;2022-10-10T06:28:05;101235.69;;;6.73;100.00
55610;BME280;41486;52.502;13.486;2022-10-10T06:30:33;101235.88;;;6.70;100.00
55610;BME280;41486;52.502;13.486;2022-10-10T06:33:05;101238.78;;;6.64;100.00
55610;BME280;41486;52.502;13.486;2022-10-10T06:35:37;101243.81;;;6.69;100.00
55610;BME280;41486;52.502;13.486;2022-10-10T06:38:05;101238.47;;;6.70;100.00
55610;BME280;41486;52.502;13.486;2022-10-10T06:40:35;101247.34;;;6.68;100.00
55610;BME280;41486;52.502;13.486;2022-10-10T06:43:03;101241.78;;;6.56;100.00
55610;BME280;41486;52.502;13.486;2022-10-10T06:45:34;101243.34;;;6.60;100.00
55610;BME280;41486;52.502;13.486;2022-10-10T06:48:03;101248.72;;;6.57;100.00
55610;BME280;41486;52.502;13.486;2022-10-10T06:50:31;101242.88;;;6.52;100.00
55610;BME280;41486;52.502;13.486;2022-10-10T06:53:00;101246.16;;;6.73;100.00
55610;BME280;41486;52.502;13.486;2022-10-10T06:55:28;101239.63;;;6.82;100.00
55610;BME280;41486;52.502;13.486;2022-10-10T06:57:57;101232.91;;;6.94;100.00
55610;BME280;41486;52.502;13.486;2022-10-10T07:00:25;101241.66;;;7.10;100.00
55610;BME280;41486;52.502;13.486;2022-10-10T07:02:52;101239.81;;;7.13;100.00
55610;BME280;41486;52.502;13.486;2022-10-10T07:05:20;101240.09;;;7.24;100.00
55610;BME280;41486;52.502;13.486;2022-10-10T07:07:50;101237.56;;;7.38;100.00
55610;BME280;41486;52.502;13.486;2022-10-10T07:10:20;101238.47;;;7.71;100.00
55610;BME280;41486;52.502;13.486;2022-10-10T07:12:48;101241.44;;;7.65;100.00
55610;BME280;41486;52.502;13.486;2022-10-10T07:15:15;101233.28;;;7.69;100.00
55610;BME280;41486;52.502;13.486;2022-10-10T07:17:43;101232.47;;;7.69;100.00
55610;BME280;41486;52.502;13.486;2022-10-10T07:20:17;101230.84;;;7.98;100.00
55610;BME280;41486;52.502;13.486;2022-10-10T07:22:45;101228.03;;;8.01;100.00
55610;BME280;41486;52.502;13.486;2022-10-10T07:25:13;101218.81;;;8.10;100.00
55610;BME280;41486;52.502;13.486;2022-10-10T07:27:42;101218.34;;;8.34;100.00
55610;BME280;41486;52.502;13.486;2022-10-10T07:30:11;101219.50;;;8.44;100.00
55610;BME280;41486;52.502;13.486;2022-10-10T07:32:39;101211.72;;;8.43;100.00
55610;BME280;41486;52.502;13.486;2022-10-10T07:35:07;101215.44;;;8.55;100.00
55610;BME280;41486;52.502;13.486;2022-10-10T07:37:35;101223.44;;;8.82;100.00
55610;BME280;41486;52.502;13.486;2022-10-10T07:40:03;101223.75;;;8.92;99.45
55610;BME280;41486;52.502;13.486;2022-10-10T07:42:32;101220.66;;;8.99;99.11
55610;BME280;41486;52.502;13.486;2022-10-10T07:45:01;101220.66;;;9.14;99.11
55610;BME280;41486;52.502;13.486;2022-10-10T07:47:29;101215.41;;;9.14;96.87
55610;BME280;41486;52.502;13.486;2022-10-10T07:49:57;101212.13;;;9.10;96.88
55610;BME280;41486;52.502;13.486;2022-10-10T07:52:25;101219.72;;;9.00;98.13
55610;BME280;41486;52.502;13.486;2022-10-10T07:54:53;101215.03;;;9.06;97.45
55610;BME280;41486;52.502;13.486;2022-10-10T07:57:20;101214.94;;;9.22;97.44
55610;BME280;41486;52.502;13.486;2022-10-10T07:59:48;101217.09;;;9.29;96.86
55610;BME280;41486;52.502;13.486;2022-10-10T08:02:17;101213.50;;;9.59;96.67
55610;BME280;41486;52.502;13.486;2022-10-10T08:04:45;101213.59;;;9.43;95.92
55610;BME280;41486;52.502;13.486;2022-10-10T08:07:13;101204.88;;;9.57;94.48
55610;BME280;41486;52.502;13.486;2022-10-10T08:09:41;101211.31;;;9.66;94.54
55610;BME280;41486;52.502;13.486;2022-10-10T08:12:08;101202.84;;;9.75;93.74
55610;BME280;41486;52.502;13.486;2022-10-10T08:14:36;101207.44;;;9.72;93.55
55610;BME280;41486;52.502;13.486;2022-10-10T08:17:04;101208.84;;;9.77;94.17
55610;BME280;41486;52.502;13.486;2022-10-10T08:19:34;101203.19;;;9.84;92.79
55610;BME280;41486;52.502;13.486;2022-10-10T08:22:02;101202.94;;;10.01;93.23
55610;BME280;41486;52.502;13.486;2022-10-10T08:24:30;101206.69;;;10.12;91.48
55610;BME280;41486;52.502;13.486;2022-10-10T08:26:57;101198.75;;;9.99;88.92
55610;BME280;41486;52.502;13.486;2022-10-10T08:29:25;101199.31;;;10.17;89.87
55610;BME280;41486;52.502;13.486;2022-10-10T08:31:53;101191.56;;;10.28;89.25
55610;BME280;41486;52.502;13.486;2022-10-10T08:34:21;101199.16;;;10.33;86.67
55610;BME280;41486;52.502;13.486;2022-10-10T08:36:50;101195.28;;;10.38;86.13
55610;BME280;41486;52.502;13.486;2022-10-10T08:39:18;101192.38;;;10.56;86.28
55610;BME280;41486;52.502;13.486;2022-10-10T08:41:48;101188.59;;;10.73;84.76
55610;BME280;41486;52.502;13.486;2022-10-10T08:44:21;101187.97;;;10.69;84.08
55610;BME280;41486;52.502;13.486;2022-10-10T08:46:52;101193.44;;;10.66;85.33
55610;BME280;41486;52.502;13.486;2022-10-10T08:49:26;101194.50;;;10.77;85.35
55610;BME280;41486;52.502;13.486;2022-10-10T08:52:04;101190.19;;;10.88;85.12
55610;BME280;41486;52.502;13.486;2022-10-10T08:54:35;101185.75;;;10.89;84.20
55610;BME280;41486;52.502;13.486;2022-10-10T08:57:06;101188.69;;;10.97;84.66
55610;BME280;41486;52.502;13.486;2022-10-10T08:59:38;101185.44;;;11.07;83.78
55610;BME280;41486;52.502;13.486;2022-10-10T09:02:27;101179.69;;;11.39;84.50
55610;BME280;41486;52.502;13.486;2022-10-10T09:05:19;101179.50;;;11.29;83.02
55610;BME280;41486;52.502;13.486;2022-10-10T09:07:59;101183.41;;;11.23;82.54
55610;BME280;41486;52.502;13.486;2022-10-10T09:10:37;101177.88;;;11.39;82.08
55610;BME280;41486;52.502;13.486;2022-10-10T09:13:18;101164.97;;;11.47;81.86
55610;BME280;41486;52.502;13.486;2022-10-10T09:15:55;101168.03;;;11.54;80.69
55610;BME280;41486;52.502;13.486;2022-10-10T09:18:35;101173.63;;;11.74;79.83
55610;BME280;41486;52.502;13.486;2022-10-10T09:21:10;101166.19;;;11.67;79.26
55610;BME280;41486;52.502;13.486;2022-10-10T09:23:48;101164.78;;;11.75;79.45
55610;BME280;41486;52.502;13.486;2022-10-10T09:26:21;101160.44;;;11.74;79.15
55610;BME280;41486;52.502;13.486;2022-10-10T09:28:52;101156.81;;;11.88;78.89
55610;BME280;41486;52.502;13.486;2022-10-10T09:31:25;101154.28;;;12.10;79.26
55610;BME280;41486;52.502;13.486;2022-10-10T09:33:57;101155.06;;;12.24;77.47
55610;BME280;41486;52.502;13.486;2022-10-10T09:36:30;101149.66;;;12.25;77.75
55610;BME280;41486;52.502;13.486;2022-10-10T09:39:03;101147.16;;;12.35;77.22
55610;BME280;41486;52.502;13.486;2022-10-10T09:41:35;101142.69;;;12.24;78.53
55610;BME280;41486;52.502;13.486;2022-10-10T09:44:10;101145.88;;;12.41;78.22
55610;BME280;41486;52.502;13.486;2022-10-10T09:46:39;101143.72;;;12.57;77.29
55610;BME280;41486;52.502;13.486;2022-10-10T09:49:12;101140.16;;;12.81;76.27
55610;BME280;41486;52.502;13.486;2022-10-10T09:51:41;101140.00;;;12.83;75.26
55610;BME280;41486;52.502;13.486;2022-10-10T09:54:11;101146.16;;;13.06;74.87
55610;BME280;41486;52.502;13.486;2022-10-10T09:56:44;101131.94;;;13.18;74.13
55610;BME280;41486;52.502;13.486;2022-10-10T09:59:38;101124.59;;;13.33;72.78
55610;BME280;41486;52.502;13.486;2022-10-10T10:02:12;101122.34;;;13.29;73.47
55610;BME280;41486;52.502;13.486;2022-10-10T10:04:41;101127.25;;;13.33;74.35
55610;BME280;41486;52.502;13.486;2022-10-10T10:07:24;101126.88;;;13.38;72.75
55610;BME280;41486;52.502;13.486;2022-10-10T10:09:56;101130.03;;;13.20;74.35
55610;BME280;41486;52.502;13.486;2022-10-10T10:12:27;101141.09;;;13.25;74.07
55610;BME280;41486;52.502;13.486;2022-10-10T10:15:02;101129.78;;;13.23;74.36
55610;BME280;41486;52.502;13.486;2022-10-10T10:17:30;101129.41;;;13.39;74.53
55610;BME280;41486;52.502;13.486;2022-10-10T10:19:58;101132.69;;;13.76;73.51
55610;BME280;41486;52.502;13.486;2022-10-10T10:22:32;101132.44;;;14.00;71.59
55610;BME280;41486;52.502;13.486;2022-10-10T10:25:31;101133.19;;;13.69;72.83
55610;BME280;41486;52.502;13.486;2022-10-10T10:28:14;101126.22;;;13.68;73.59
55610;BME280;41486;52.502;13.486;2022-10-10T10:30:43;101133.72;;;13.84;73.35
55610;BME280;41486;52.502;13.486;2022-10-10T10:33:18;101135.53;;;13.84;71.44
55610;BME280;41486;52.502;13.486;2022-10-10T10:35:55;101132.53;;;13.88;71.86
55610;BME280;41486;52.502;13.486;2022-10-10T10:38:34;101129.03;;;13.88;71.67
55610;BME280;41486;52.502;13.486;2022-10-10T10:41:14;101128.41;;;13.96;72.43
55610;BME280;41486;52.502;13.486;2022-10-10T10:44:08;101124.13;;;14.04;70.78
55610;BME280;41486;52.502;13.486;2022-10-10T10:46:48;101123.38;;;14.14;70.54
55610;BME280;41486;52.502;13.486;2022-10-10T10:49:27;101107.94;;;14.19;70.22
55610;BME280;41486;52.502;13.486;2022-10-10T10:52:07;101096.22;;;14.43;68.59
55610;BME280;41486;52.502;13.486;2022-10-10T10:54:48;101090.59;;;14.57;67.65
55610;BME280;41486;52.502;13.486;2022-10-10T10:57:26;101095.19;;;14.55;68.19
55610;BME280;41486;52.502;13.486;2022-10-10T11:00:10;101092.59;;;14.44;69.27
55610;BME280;41486;52.502;13.486;2022-10-10T11:03:09;101091.78;;;14.43;69.04
55610;BME280;41486;52.502;13.486;2022-10-10T11:06:08;101096.47;;;14.61;67.84
55610;BME280;41486;52.502;13.486;2022-10-10T11:08:51;101091.75;;;14.64;67.58
55610;BME280;41486;52.502;13.486;2022-10-10T11:11:31;101090.66;;;14.67;68.20
55610;BME280;41486;52.502;13.486;2022-10-10T11:14:10;101085.69;;;14.74;68.03
55610;BME280;41486;52.502;13.486;2022-10-10T11:16:47;101080.19;;;15.06;68.41
55610;BME280;41486;52.502;13.486;2022-10-10T11:19:24;101078.97;;;15.20;66.42
55610;BME280;41486;52.502;13.486;2022-10-10T11:21:59;101067.13;;;15.44;65.85
55610;BME280;41486;52.502;13.486;2022-10-10T11:24:39;101070.59;;;15.54;64.66
55610;BME280;41486;52.502;13.486;2022-10-10T11:27:14;101058.47;;;15.71;64.95
55610;BME280;41486;52.502;13.486;2022-10-10T11:29:57;101068.41;;;15.89;64.38
55610;BME280;41486;52.502;13.486;2022-10-10T11:32:29;101069.34;;;16.07;63.03
55610;BME280;41486;52.502;13.486;2022-10-10T11:35:13;101066.00;;;15.96;63.53
55610;BME280;41486;52.502;13.486;2022-10-10T11:37:44;101074.97;;;15.85;63.94
55610;BME280;41486;52.502;13.486;2022-10-10T11:40:31;101063.16;;;16.17;62.08
55610;BME280;41486;52.502;13.486;2022-10-10T11:43:06;101060.84;;;15.94;63.74
55610;BME280;41486;52.502;13.486;2022-10-10T11:45:42;101067.56;;;15.88;63.31
55610;BME280;41486;52.502;13.486;2022-10-10T11:48:24;101056.94;;;15.69;64.08
55610;BME280;41486;52.502;13.486;2022-10-10T11:50:58;101056.34;;;15.95;64.29
55610;BME280;41486;52.502;13.486;2022-10-10T11:53:32;101061.66;;;15.95;64.19
55610;BME280;41486;52.502;13.486;2022-10-10T11:56:11;101046.66;;;16.23;62.99
55610;BME280;41486;52.502;13.486;2022-10-10T11:58:44;101051.09;;;16.42;62.95
55610;BME280;41486;52.502;13.486;2022-10-10T12:01:19;101044.94;;;16.69;61.85
55610;BME280;41486;52.502;13.486;2022-10-10T12:03:50;101036.28;;;17.67;59.87
55610;BME280;41486;52.502;13.486;2022-10-10T12:06:21;101043.59;;;19.38;54.24
55610;BME280;41486;52.502;13.486;2022-10-10T12:08:58;101048.84;;;21.55;47.06
55610;BME280;41486;52.502;13.486;2022-10-10T12:11:31;101039.22;;;21.69;46.44
55610;BME280;41486;52.502;13.486;2022-10-10T12:14:02;101041.06;;;22.67;43.71
55610;BME280;41486;52.502;13.486;2022-10-10T12:16:35;101031.72;;;22.03;44.14
55610;BME280;41486;52.502;13.486;2022-10-10T12:19:05;101039.22;;;22.89;43.45
55610;BME280;41486;52.502;13.486;2022-10-10T12:21:55;101031.53;;;23.94;41.26
55610;BME280;41486;52.502;13.486;2022-10-10T12:24:25;101026.34;;;23.93;40.96
55610;BME280;41486;52.502;13.486;2022-10-10T12:27:10;101024.09;;;23.68;41.55
55610;BME280;41486;52.502;13.486;2022-10-10T12:30:11;101032.63;;;23.28;41.68
55610;BME280;41486;52.502;13.486;2022-10-10T12:32:43;101031.84;;;22.91;41.99
55610;BME280;41486;52.502;13.486;2022-10-10T12:35:37;101030.78;;;23.79;41.20
55610;BME280;41486;52.502;13.486;2022-10-10T12:38:17;101039.63;;;23.23;40.84
55610;BME280;41486;52.502;13.486;2022-10-10T12:41:04;101032.94;;;24.19;39.79
55610;BME280;41486;52.502;13.486;2022-10-10T12:43:46;101035.53;;;22.90;42.83
55610;BME280;41486;52.502;13.486;2022-10-10T12:49:14;101029.31;;;22.53;43.92
55610;BME280;41486;52.502;13.486;2022-10-10T12:51:45;101016.94;;;22.22;44.96
55610;BME280;41486;52.502;13.486;2022-10-10T12:54:28;101027.09;;;22.57;43.45
55610;BME280;41486;52.502;13.486;2022-10-10T12:57:08;101028.41;;;21.39;45.92
55610;BME280;41486;52.502;13.486;2022-10-10T12:59:39;101020.41;;;20.85;47.66
55610;BME280;41486;52.502;13.486;2022-10-10T13:02:13;101013.84;;;20.56;48.78
55610;BME280;41486;52.502;13.486;2022-10-10T13:04:45;101014.38;;;19.95;50.32
55610;BME280;41486;52.502;13.486;2022-10-10T13:07:17;101006.56;;;19.52;51.20
55610;BME280;41486;52.502;13.486;2022-10-10T13:09:47;101011.88;;;19.19;52.96
55610;BME280;41486;52.502;13.486;2022-10-10T13:12:24;101001.88;;;19.04;53.12